Time;durP1;ratioP1;P1;durP2;ratioP2;P2;SDS_P1;SDS_P2;PMS_P1;PMS_P2;Temp;Humidity;BMP_temperature;BMP_pressure;BME280_temperature;BME280_humidity;BME280_pressure;Samples;Min_cycle;Max_cycle;Signal;HPM_P1;HPM_P2
2021/01/15 00:01:37;;;;;;;;;;;;;;;15.75;59.25;101369.44;4950444;28;953;-69
2021/01/15 00:08:37;;;;;;;;;;;;;;;15.71;59.32;101352.09;4896118;29;1248;-70
2021/01/15 00:11:04;;;;;;;;;;;;;;;15.69;59.44;101344.25;4932828;28;1975;-70
2021/01/15 00:14:15;;;;;;;;;;;;;;;15.69;59.30;101349.50;5078326;23;1674;-73
2021/01/15 00:18:04;;;;;;;;;;;;;;;15.69;59.30;101352.13;4911922;29;1311;-69
2021/01/15 00:21:05;;;;;;;;;;;;;;;15.65;59.34;101342.66;4843585;29;1289;-68
2021/01/15 00:23:56;;;;;;;;;;;;;;;15.66;59.40;101338.25;4952371;29;1312;-71
2021/01/15 00:30:29;;;;;;;;;;;;;;;15.63;59.59;101323.44;5402915;23;2201;-69
2021/01/15 00:36:51;;;;;;;;;;;;;;;15.63;59.49;101322.59;4886923;29;2076;-72
2021/01/15 00:39:27;;;;;;;;;;;;;;;15.63;59.66;101323.44;4925728;29;2012;-70
2021/01/15 00:42:24;;;;;;;;;;;;;;;15.61;59.36;101306.03;4898249;29;1353;-70
2021/01/15 00:44:57;;;;;;;;;;;;;;;15.62;59.47;101308.63;4897998;29;1163;-69
2021/01/15 00:47:31;;;;;;;;;;;;;;;15.61;59.42;101314.78;4882210;29;1438;-71
2021/01/15 00:50:00;;;;;;;;;;;;;;;15.60;59.36;101313.06;4895906;29;1358;-74
2021/01/15 00:53:01;;;;;;;;;;;;;;;15.58;59.80;101307.00;4901535;29;1968;-69
2021/01/15 00:55:28;;;;;;;;;;;;;;;15.60;59.77;101309.56;4915396;29;1064;-68
2021/01/15 00:58:03;;;;;;;;;;;;;;;15.59;59.55;101305.25;4914810;29;1353;-70
2021/01/15 01:00:30;;;;;;;;;;;;;;;15.56;59.63;101306.22;4915119;29;1134;-68
2021/01/15 01:02:56;;;;;;;;;;;;;;;15.59;59.87;101292.13;4914896;29;1227;-69
2021/01/15 01:05:23;;;;;;;;;;;;;;;15.56;59.36;101289.59;4914821;29;1058;-68
2021/01/15 01:07:49;;;;;;;;;;;;;;;15.54;59.68;101297.50;4914782;29;1332;-68
2021/01/15 01:10:16;;;;;;;;;;;;;;;15.52;59.66;101294.09;4915432;29;1151;-67
2021/01/15 01:12:43;;;;;;;;;;;;;;;15.52;59.67;101288.84;4914486;29;1907;-68
2021/01/15 01:15:10;;;;;;;;;;;;;;;15.52;59.48;101294.09;4915028;29;1193;-68
2021/01/15 01:17:37;;;;;;;;;;;;;;;15.52;59.64;101288.84;4914430;29;1325;-68
2021/01/15 01:20:07;;;;;;;;;;;;;;;15.51;59.64;101304.63;4914949;29;969;-68
2021/01/15 01:22:33;;;;;;;;;;;;;;;15.50;59.44;101303.81;4897309;29;1342;-67
2021/01/15 01:25:00;;;;;;;;;;;;;;;15.50;59.62;101309.06;4897445;29;1180;-68
2021/01/15 01:27:27;;;;;;;;;;;;;;;15.49;59.83;101309.94;4914011;29;1207;-69
2021/01/15 01:29:53;;;;;;;;;;;;;;;15.48;59.67;101310.84;4912885;29;1188;-68
2021/01/15 01:32:19;;;;;;;;;;;;;;;15.46;59.76;101317.03;4912645;29;1922;-69
2021/01/15 01:34:46;;;;;;;;;;;;;;;15.47;59.60;101306.50;4914056;29;900;-69
2021/01/15 01:37:12;;;;;;;;;;;;;;;15.45;59.40;101297.78;4913443;29;1237;-67
2021/01/15 01:39:39;;;;;;;;;;;;;;;15.43;59.46;101310.13;4897451;29;1039;-68
2021/01/15 01:42:05;;;;;;;;;;;;;;;15.44;59.59;101316.25;4914400;29;1230;-70
2021/01/15 01:44:32;;;;;;;;;;;;;;;15.43;59.45;101312.75;4912803;29;1277;-67
2021/01/15 01:46:58;;;;;;;;;;;;;;;15.42;59.32;101316.28;4914285;29;835;-68
2021/01/15 01:49:26;;;;;;;;;;;;;;;15.44;59.17;101311.81;4912420;29;1376;-68
2021/01/15 01:51:53;;;;;;;;;;;;;;;15.41;59.35;101305.84;4912602;29;1985;-69
2021/01/15 01:54:19;;;;;;;;;;;;;;;15.42;59.45;101304.91;4897150;29;1229;-67
2021/01/15 01:56:46;;;;;;;;;;;;;;;15.39;59.33;101308.50;4914495;29;791;-67
2021/01/15 01:59:14;;;;;;;;;;;;;;;15.39;59.39;101302.41;4913952;29;1214;-67
2021/01/15 02:01:40;;;;;;;;;;;;;;;15.39;59.46;101302.41;4897104;29;788;-68
2021/01/15 02:04:07;;;;;;;;;;;;;;;15.38;59.32;101306.78;4913767;29;1198;-68
2021/01/15 02:06:34;;;;;;;;;;;;;;;15.38;59.45;101303.31;4913848;29;1068;-68
2021/01/15 02:09:07;;;;;;;;;;;;;;;15.38;59.50;101301.53;4913708;29;1305;-70
2021/01/15 02:11:37;;;;;;;;;;;;;;;15.38;59.25;101314.66;4913344;29;1980;-68
2021/01/15 02:14:23;;;;;;;;;;;;;;;15.36;59.40;101313.88;4912220;29;1254;-67
2021/01/15 02:16:52;;;;;;;;;;;;;;;15.37;59.28;101320.84;4913522;29;866;-68
2021/01/15 02:19:21;;;;;;;;;;;;;;;15.33;59.24;101311.34;4913519;29;1227;-69
2021/01/15 02:22:05;;;;;;;;;;;;;;;15.34;59.43;101315.69;4913541;29;1123;-68
2021/01/15 02:24:47;;;;;;;;;;;;;;;15.36;59.04;101313.88;4913320;29;1190;-68
2021/01/15 02:27:30;;;;;;;;;;;;;;;15.35;59.27;101313.94;4896737;29;1391;-67
2021/01/15 02:29:57;;;;;;;;;;;;;;;15.34;59.35;101320.94;4913288;29;1106;-67
2021/01/15 02:32:38;;;;;;;;;;;;;;;15.32;59.39;101314.88;4913593;29;1968;-69
2021/01/15 02:35:14;;;;;;;;;;;;;;;15.34;59.33;101320.94;4905416;29;1035;-68
2021/01/15 02:37:47;;;;;;;;;;;;;;;15.32;59.21;101318.34;4896108;29;1307;-67
2021/01/15 02:40:18;;;;;;;;;;;;;;;15.31;59.13;101321.03;4912374;29;1175;-68
2021/01/15 02:42:46;;;;;;;;;;;;;;;15.29;59.43;101322.84;4912620;29;1191;-67
2021/01/15 02:45:12;;;;;;;;;;;;;;;15.30;59.42;101319.31;4912619;29;1274;-71
2021/01/15 02:47:39;;;;;;;;;;;;;;;15.29;59.19;101320.22;4912930;29;1261;-68
2021/01/15 02:50:09;;;;;;;;;;;;;;;15.29;59.32;101330.72;4912859;29;1267;-68
2021/01/15 02:52:36;;;;;;;;;;;;;;;15.29;59.39;101323.72;4911555;29;1915;-67
2021/01/15 02:55:02;;;;;;;;;;;;;;;15.29;59.77;101318.47;4913275;29;1177;-68
2021/01/15 02:57:30;;;;;;;;;;;;;;;15.26;59.44;101315.06;4912622;29;1231;-68
2021/01/15 02:59:56;;;;;;;;;;;;;;;15.26;59.49;101315.94;4911615;29;962;-68
2021/01/15 03:02:30;;;;;;;;;;;;;;;15.27;59.63;101314.19;4895557;29;1308;-68
2021/01/15 03:05:00;;;;;;;;;;;;;;;15.25;59.35;101321.25;4911620;29;1060;-67
2021/01/15 03:07:27;;;;;;;;;;;;;;;15.25;59.45;101321.25;4912868;29;1371;-69
2021/01/15 03:09:58;;;;;;;;;;;;;;;15.23;59.36;101323.03;4913032;29;1061;-69
2021/01/15 03:12:25;;;;;;;;;;;;;;;15.24;59.57;101324.78;4912712;29;1914;-69
2021/01/15 03:14:54;;;;;;;;;;;;;;;15.22;59.54;101310.84;4913013;29;1077;-68
2021/01/15 03:17:23;;;;;;;;;;;;;;;15.23;59.36;101308.16;4912592;29;1254;-70
2021/01/15 03:19:50;;;;;;;;;;;;;;;15.23;59.58;101308.16;4895535;29;2930;-67
2021/01/15 03:22:21;;;;;;;;;;;;;;;15.21;59.24;101294.25;4912765;29;1334;-67
2021/01/15 03:24:57;;;;;;;;;;;;;;;15.19;59.35;101303.94;4895378;29;1359;-69
2021/01/15 03:27:46;;;;;;;;;;;;;;;15.21;59.31;101312.63;4912718;29;1368;-69
2021/01/15 03:30:19;;;;;;;;;;;;;;;15.22;59.45;101309.09;4906026;29;1232;-68
2021/01/15 03:32:47;;;;;;;;;;;;;;;15.22;59.42;101305.59;4895233;29;1914;-68
2021/01/15 03:35:23;;;;;;;;;;;;;;;15.20;59.62;101296.91;4895373;29;1176;-70
2021/01/15 03:38:05;;;;;;;;;;;;;;;15.20;59.44;101296.91;4912467;29;1253;-68
2021/01/15 03:40:43;;;;;;;;;;;;;;;15.18;59.51;101299.59;4912893;29;1108;-68
2021/01/15 03:43:11;;;;;;;;;;;;;;;15.18;59.55;101291.72;4905367;29;1274;-67
2021/01/15 03:45:37;;;;;;;;;;;;;;;15.20;59.44;101287.28;4912801;29;943;-68
2021/01/15 03:48:04;;;;;;;;;;;;;;;15.18;59.35;101285.59;4910895;29;1380;-71
2021/01/15 03:50:31;;;;;;;;;;;;;;;15.17;59.50;101284.75;4907696;29;1194;-71
2021/01/15 03:52:57;;;;;;;;;;;;;;;15.16;59.48;101275.19;4896218;29;1911;-70
2021/01/15 03:55:23;;;;;;;;;;;;;;;15.15;59.52;101278.69;4897212;29;1144;-70
2021/01/15 03:57:56;;;;;;;;;;;;;;;15.15;59.39;101283.94;4897554;29;1402;-68
2021/01/15 04:00:22;;;;;;;;;;;;;;;15.16;59.45;101295.31;4911463;29;1071;-69
2021/01/15 04:02:49;;;;;;;;;;;;;;;15.16;59.58;101292.69;4879893;29;1247;-67
2021/01/15 04:05:15;;;;;;;;;;;;;;;15.16;59.29;101290.06;4911406;29;1166;-67
2021/01/15 04:07:42;;;;;;;;;;;;;;;15.16;59.44;101297.94;4897113;29;1292;-68
2021/01/15 04:10:10;;;;;;;;;;;;;;;15.16;59.41;101288.31;4880304;29;1076;-68
2021/01/15 04:12:37;;;;;;;;;;;;;;;15.14;59.37;101273.50;4879953;29;1907;-69
2021/01/15 04:15:08;;;;;;;;;;;;;;;15.14;59.36;101268.25;4896976;29;1038;-69
2021/01/15 04:17:35;;;;;;;;;;;;;;;15.12;59.19;101275.31;4896665;29;1239;-69
2021/01/15 04:20:05;;;;;;;;;;;;;;;15.14;59.11;101258.59;4897048;29;1037;-69
2021/01/15 04:22:35;;;;;;;;;;;;;;;15.12;59.35;101262.19;4880234;29;1325;-68
2021/01/15 04:25:02;;;;;;;;;;;;;;;15.11;59.20;101260.47;4879652;29;1279;-68
2021/01/15 04:27:31;;;;;;;;;;;;;;;15.10;58.97;101257.03;4896667;29;1240;-68
2021/01/15 04:29:58;;;;;;;;;;;;;;;15.11;59.17;101256.09;4879921;29;948;-68
2021/01/15 04:32:25;;;;;;;;;;;;;;;15.08;58.82;101250.09;4896481;29;1976;-68
2021/01/15 04:34:51;;;;;;;;;;;;;;;15.08;58.97;101258.81;4896788;29;1198;-67
2021/01/15 04:37:17;;;;;;;;;;;;;;;15.07;59.06;101253.63;4896200;29;1328;-68
2021/01/15 04:39:43;;;;;;;;;;;;;;;15.08;59.05;101263.19;4896232;29;1060;-69
2021/01/15 04:42:12;;;;;;;;;;;;;;;15.07;59.25;101269.38;4910706;29;1290;-67
2021/01/15 04:44:42;;;;;;;;;;;;;;;15.09;59.16;101278.91;4896589;29;977;-69
2021/01/15 04:47:08;;;;;;;;;;;;;;;15.08;59.32;101286.81;4896713;29;1218;-69
2021/01/15 04:49:36;;;;;;;;;;;;;;;15.07;59.15;101275.50;4886083;29;1323;-68
2021/01/15 04:52:03;;;;;;;;;;;;;;;15.05;59.31;101298.28;4897881;29;1911;-69
2021/01/15 04:54:37;;;;;;;;;;;;;;;15.06;59.18;101293.88;4915140;29;1185;-69
2021/01/15 04:57:12;;;;;;;;;;;;;;;15.05;59.49;101308.78;4915101;29;1233;-70
2021/01/15 04:59:45;;;;;;;;;;;;;;;15.02;59.43;101281.78;4882231;29;1311;-68
2021/01/15 05:02:12;;;;;;;;;;;;;;;15.03;59.71;101289.59;4914496;29;1309;-70
2021/01/15 05:04:39;;;;;;;;;;;;;;;15.03;59.23;101270.38;4914501;29;958;-70
2021/01/15 05:07:09;;;;;;;;;;;;;;;15.03;59.37;101288.75;4897857;29;1308;-69
2021/01/15 05:09:46;;;;;;;;;;;;;;;15.02;59.50;101287.03;4914773;29;1154;-68
2021/01/15 05:12:16;;;;;;;;;;;;;;;15.01;59.41;101285.31;4907836;29;1906;-69
2021/01/15 05:14:43;;;;;;;;;;;;;;;15.02;59.32;101287.03;4914710;29;1043;-67
2021/01/15 05:17:10;;;;;;;;;;;;;;;15.01;59.23;101285.31;4897466;29;1271;-70
2021/01/15 05:19:44;;;;;;;;;;;;;;;15.01;59.42;101278.31;4914513;29;1026;-69
2021/01/15 05:22:13;;;;;;;;;;;;;;;15.00;59.50;101292.34;4897651;29;1260;-69
2021/01/15 05:24:40;;;;;;;;;;;;;;;15.02;59.44;101287.88;4914728;29;974;-68
2021/01/15 05:30:14;;;;;;;;;;;;;;;14.99;59.42;101287.13;4914198;29;801;-69
2021/01/15 05:32:41;;;;;;;;;;;;;;;14.99;59.54;101297.63;4913889;29;1918;-68
2021/01/15 05:35:08;;;;;;;;;;;;;;;15.00;59.64;101291.47;4897039;29;1390;-68
2021/01/15 05:37:34;;;;;;;;;;;;;;;14.98;59.80;101299.41;4914397;29;1265;-68
2021/01/15 05:40:01;;;;;;;;;;;;;;;14.97;59.49;101309.94;4914253;29;1086;-69
2021/01/15 05:42:27;;;;;;;;;;;;;;;14.98;59.39;101311.66;4897024;29;1325;-68
2021/01/15 05:45:11;;;;;;;;;;;;;;;14.99;59.35;101308.09;4912374;29;1298;-70
2021/01/15 05:47:44;;;;;;;;;;;;;;;14.95;59.27;101303.88;4897001;29;1298;-68
2021/01/15 05:50:14;;;;;;;;;;;;;;;14.96;59.46;101321.31;4895976;29;1635;-68
2021/01/15 05:52:56;;;;;;;;;;;;;;;14.94;59.06;101326.63;4912752;29;1919;-69
2021/01/15 05:55:23;;;;;;;;;;;;;;;14.93;59.15;101330.16;4896628;29;1244;-68
2021/01/15 05:57:50;;;;;;;;;;;;;;;14.96;59.21;101318.69;4896747;29;1274;-69
2021/01/15 06:00:25;;;;;;;;;;;;;;;14.93;59.11;101314.41;4896788;29;912;-70
2021/01/15 06:02:55;;;;;;;;;;;;;;;14.94;59.24;101321.38;4912408;29;1317;-69
2021/01/15 06:05:23;;;;;;;;;;;;;;;14.94;59.11;101320.53;4913675;29;895;-69
2021/01/15 06:07:56;;;;;;;;;;;;;;;15.00;59.64;101310.69;4914045;29;1292;-69
2021/01/15 06:10:22;;;;;;;;;;;;;;;14.98;59.27;101322.16;4896791;29;776;-68
2021/01/15 06:12:53;;;;;;;;;;;;;;;14.96;59.52;101308.22;4913899;29;1914;-68
2021/01/15 06:15:19;;;;;;;;;;;;;;;14.98;59.49;101317.78;4913377;29;1077;-68
2021/01/15 06:17:55;;;;;;;;;;;;;;;14.97;59.61;101316.03;4913316;29;1291;-68
2021/01/15 06:20:22;;;;;;;;;;;;;;;14.95;59.72;101312.63;4913788;29;780;-68
2021/01/15 06:22:49;;;;;;;;;;;;;;;14.96;59.80;101316.94;4913983;29;1313;-68
2021/01/15 06:25:17;;;;;;;;;;;;;;;14.96;59.85;101324.81;4896224;29;1237;-68
2021/01/15 06:27:45;;;;;;;;;;;;;;;15.05;59.98;101314.03;4913758;29;1210;-69
2021/01/15 06:30:14;;;;;;;;;;;;;;;15.01;59.87;101322.91;4913604;29;744;-68
2021/01/15 06:32:41;;;;;;;;;;;;;;;14.98;59.98;101316.91;4896316;29;1984;-68
2021/01/15 06:35:07;;;;;;;;;;;;;;;14.95;59.63;101315.25;4913627;29;712;-68
2021/01/15 06:37:35;;;;;;;;;;;;;;;14.95;59.92;101315.25;4913446;29;1322;-69
2021/01/15 06:40:07;;;;;;;;;;;;;;;14.95;59.70;101314.38;4912989;29;863;-69
2021/01/15 06:42:47;;;;;;;;;;;;;;;14.99;60.70;101313.34;4896015;29;1313;-70
2021/01/15 06:45:15;;;;;;;;;;;;;;;14.91;60.01;101311.00;4896097;29;1318;-70
2021/01/15 06:47:43;;;;;;;;;;;;;;;14.85;60.13;101312.94;4895943;29;1330;-69
2021/01/15 06:50:13;;;;;;;;;;;;;;;14.83;60.16;101312.16;4895897;29;1441;-72
2021/01/15 06:52:41;;;;;;;;;;;;;;;14.84;60.12;101324.34;4913305;29;1942;-70
2021/01/15 06:55:07;;;;;;;;;;;;;;;14.84;60.35;101298.09;4913796;29;776;-70
2021/01/15 06:57:35;;;;;;;;;;;;;;;15.00;60.45;101305.44;4914321;29;1372;-69
2021/01/15 07:00:03;;;;;;;;;;;;;;;14.97;59.82;101308.19;4896057;29;1116;-69
2021/01/15 07:02:42;;;;;;;;;;;;;;;14.98;59.84;101306.41;4896013;29;1293;-68
2021/01/15 07:05:12;;;;;;;;;;;;;;;14.97;59.80;101309.94;4912831;29;792;-69
2021/01/15 07:07:41;;;;;;;;;;;;;;;14.86;59.71;101306.81;4913320;29;1338;-68
2021/01/15 07:10:10;;;;;;;;;;;;;;;14.99;59.79;101308.09;4913174;29;721;-70
2021/01/15 07:12:54;;;;;;;;;;;;;;;14.95;60.19;101315.25;4896113;29;1919;-71
2021/01/15 07:20:09;;;;;;;;;;;;;;;14.97;60.30;101318.66;4909909;29;1706;-73
2021/01/15 07:23:12;;;;;;;;;;;;;;;14.95;60.11;101332.75;4912261;29;1363;-73
2021/01/15 07:26:03;;;;;;;;;;;;;;;14.92;59.91;101338.09;4898607;29;1854;-70
2021/01/15 07:28:47;;;;;;;;;;;;;;;14.84;59.73;101329.59;4957870;23;2081;-71
2021/01/15 07:31:23;;;;;;;;;;;;;;;14.89;59.83;101343.44;4906034;29;1028;-71
2021/01/15 07:34:05;;;;;;;;;;;;;;;14.88;60.27;101352.19;4963509;23;1911;-71
2021/01/15 07:36:59;;;;;;;;;;;;;;;;;;;;;
2021/01/15 07:40:04;;;;;;;;;;;;;;;14.87;59.91;101359.22;4901149;29;1266;-70
2021/01/15 07:43:00;;;;;;;;;;;;;;;14.83;60.21;101364.63;4998375;23;1764;-72
2021/01/15 07:45:26;;;;;;;;;;;;;;;14.83;60.02;101369.84;4912318;29;1774;-70
2021/01/15 07:48:13;;;;;;;;;;;;;;;14.85;59.92;101370.66;4926791;29;1263;-70
2021/01/15 07:50:41;;;;;;;;;;;;;;;14.86;59.80;101375.00;4913854;29;1165;-71
2021/01/15 07:53:23;;;;;;;;;;;;;;;14.85;59.73;101375.91;4901509;29;1891;-71
2021/01/15 07:55:52;;;;;;;;;;;;;;;14.88;60.45;101388.94;4929231;29;1211;-70
2021/01/15 07:58:26;;;;;;;;;;;;;;;14.96;60.06;101389.53;4916650;29;1269;-69
2021/01/15 08:01:17;;;;;;;;;;;;;;;14.91;60.15;101392.31;4856709;29;1060;-72
2021/01/15 08:03:46;;;;;;;;;;;;;;;15.07;59.54;101396.19;4849938;29;1372;-66
2021/01/15 08:06:15;;;;;;;;;;;;;;;15.23;60.19;101378.16;4856801;29;1028;-69
2021/01/15 08:09:00;;;;;;;;;;;;;;;15.31;59.36;101384.91;4856683;29;1326;-67
2021/01/15 08:11:31;;;;;;;;;;;;;;;15.20;56.39;101359.88;4857027;29;932;-69
2021/01/15 08:14:09;;;;;;;;;;;;;;;15.07;51.90;101376.97;4856496;29;1923;-72
2021/01/15 08:16:36;;;;;;;;;;;;;;;15.07;53.80;101374.34;4841369;29;1038;-70
2021/01/15 08:19:06;;;;;;;;;;;;;;;15.09;54.78;101377.75;4840856;29;1227;-75
2021/01/15 08:21:33;;;;;;;;;;;;;;;15.27;55.51;101390.28;4856638;29;1062;-70
2021/01/15 08:24:03;;;;;;;;;;;;;;;15.18;54.72;101386.19;4848896;29;1960;-69
2021/01/15 08:26:39;;;;;;;;;;;;;;;15.16;54.24;101387.16;4866857;29;1095;-69
2021/01/15 08:29:08;;;;;;;;;;;;;;;15.15;54.26;101399.41;4839760;29;1301;-68
2021/01/15 08:31:34;;;;;;;;;;;;;;;15.16;53.82;101402.91;4843701;29;1170;-67
2021/01/15 08:34:11;;;;;;;;;;;;;;;15.19;53.71;101400.19;4848034;29;1911;-68
2021/01/15 08:36:41;;;;;;;;;;;;;;;15.19;53.58;101394.94;4855057;29;1153;-69
2021/01/15 08:39:11;;;;;;;;;;;;;;;15.19;53.38;101401.06;4904441;29;1148;-69
2021/01/15 08:41:39;;;;;;;;;;;;;;;15.20;54.19;101402.75;4933176;29;815;-71
2021/01/15 08:44:05;;;;;;;;;;;;;;;15.24;53.03;101400.88;4919892;29;1503;-69
2021/01/15 08:46:33;;;;;;;;;;;;;;;15.34;53.86;101415.44;4912600;29;1042;-69
2021/01/15 08:49:11;;;;;;;;;;;;;;;15.29;52.12;101404.22;4913708;29;1277;-68
2021/01/15 08:51:40;;;;;;;;;;;;;;;15.24;51.76;101403.50;4912152;29;1092;-70
2021/01/15 08:54:09;;;;;;;;;;;;;;;15.23;51.46;101409.66;4895572;29;1911;-70
2021/01/15 08:56:43;;;;;;;;;;;;;;;15.22;51.34;101410.59;4905479;29;1291;-69
2021/01/15 08:59:16;;;;;;;;;;;;;;;15.23;51.88;101413.16;4896090;29;1214;-68
2021/01/15 09:01:42;;;;;;;;;;;;;;;15.26;52.18;101406.94;4913007;29;1541;-69
2021/01/15 09:04:11;;;;;;;;;;;;;;;15.27;52.72;101406.03;4913062;29;1204;-69
2021/01/15 09:06:40;;;;;;;;;;;;;;;15.26;52.30;101401.69;4913741;29;918;-69
2021/01/15 09:09:08;;;;;;;;;;;;;;;15.27;52.36;101400.78;4912792;29;1391;-68
2021/01/15 09:11:36;;;;;;;;;;;;;;;15.27;52.56;101404.28;4896123;29;1184;-69
2021/01/15 09:14:06;;;;;;;;;;;;;;;15.28;52.70;101392.88;4895580;29;1926;-69
2021/01/15 09:16:33;;;;;;;;;;;;;;;15.29;52.68;101391.09;4912977;29;780;-68
2021/01/15 09:19:12;;;;;;;;;;;;;;;15.28;52.92;101392.03;4913272;29;1368;-66
2021/01/15 09:22:00;;;;;;;;;;;;;;;15.31;53.53;101384.91;4913359;29;1032;-67
2021/01/15 09:24:30;;;;;;;;;;;;;;;15.32;53.33;101401.50;4896729;29;1020;-66
2021/01/15 09:27:04;;;;;;;;;;;;;;;15.33;53.23;101409.34;4893014;29;1621;-67
2021/01/15 09:29:31;;;;;;;;;;;;;;;15.32;53.08;101394.47;4909771;29;1036;-68
2021/01/15 09:31:58;;;;;;;;;;;;;;;15.34;53.13;101404.94;4927597;29;1934;-69
2021/01/15 09:34:28;;;;;;;;;;;;;;;15.35;53.33;101401.38;4915485;29;1226;-68
2021/01/15 09:36:54;;;;;;;;;;;;;;;15.35;53.60;101404.00;4912723;29;1061;-69
2021/01/15 09:39:23;;;;;;;;;;;;;;;15.33;53.06;101416.34;4910354;29;1195;-69
2021/01/15 09:41:59;;;;;;;;;;;;;;;15.59;55.28;101416.41;4931718;29;1092;-71
2021/01/15 09:44:27;;;;;;;;;;;;;;;15.50;54.18;101400.09;4898861;29;1277;-71
2021/01/15 09:46:59;;;;;;;;;;;;;;;15.50;54.41;101415.84;4895440;29;1077;-69
2021/01/15 09:49:26;;;;;;;;;;;;;;;15.50;55.00;101424.59;4894556;29;1218;-69
2021/01/15 09:51:52;;;;;;;;;;;;;;;15.55;55.34;101412.16;4895166;29;1539;-70
2021/01/15 09:54:19;;;;;;;;;;;;;;;15.50;54.18;101432.47;4911662;29;1294;-69
2021/01/15 09:56:45;;;;;;;;;;;;;;;15.48;54.22;101423.75;4911398;29;1060;-69
2021/01/15 09:59:13;;;;;;;;;;;;;;;15.46;54.13;101415.03;4911299;29;1293;-71
2021/01/15 10:01:45;;;;;;;;;;;;;;;15.45;53.97;101430.84;4912173;29;988;-70
2021/01/15 10:04:11;;;;;;;;;;;;;;;15.46;54.36;101435.19;4895250;29;1286;-69
2021/01/15 10:06:44;;;;;;;;;;;;;;;15.45;53.91;101415.09;4912068;29;962;-70
2021/01/15 10:09:12;;;;;;;;;;;;;;;15.45;53.94;101420.34;4894816;29;1437;-69
2021/01/15 10:11:39;;;;;;;;;;;;;;;15.45;53.87;101436.94;4911981;29;882;-70
2021/01/15 10:14:06;;;;;;;;;;;;;;;15.44;54.16;101437.84;4911519;29;1964;-70
2021/01/15 10:16:42;;;;;;;;;;;;;;;15.44;53.79;101432.59;4911805;29;1138;-71
2021/01/15 10:19:08;;;;;;;;;;;;;;;15.46;53.91;101448.31;4911742;29;1268;-70
2021/01/15 10:21:56;;;;;;;;;;;;;;;15.45;53.96;101430.84;4911964;29;780;-72
2021/01/15 10:24:29;;;;;;;;;;;;;;;15.45;54.25;101418.56;4889741;29;1404;-70
2021/01/15 10:26:55;;;;;;;;;;;;;;;15.45;53.48;101436.94;4890081;29;985;-70
2021/01/15 10:29:22;;;;;;;;;;;;;;;15.46;53.70;101432.56;4874274;29;1238;-69
2021/01/15 10:31:54;;;;;;;;;;;;;;;15.46;53.73;101428.19;4873725;29;1252;-70
2021/01/15 10:34:21;;;;;;;;;;;;;;;15.45;53.48;101429.06;4889895;29;1907;-70
2021/01/15 10:36:48;;;;;;;;;;;;;;;15.46;53.81;101440.44;4890431;29;1193;-69
2021/01/15 10:39:15;;;;;;;;;;;;;;;15.46;53.50;101436.06;4889814;29;1317;-69
2021/01/15 10:41:44;;;;;;;;;;;;;;;15.51;54.34;101443.78;4889446;29;1547;-71
2021/01/15 10:44:12;;;;;;;;;;;;;;;15.52;53.73;101454.25;4896697;29;1448;-70
2021/01/15 10:46:42;;;;;;;;;;;;;;;15.48;53.82;101444.75;4890220;29;1160;-73
2021/01/15 10:49:13;;;;;;;;;;;;;;;15.47;53.69;101453.53;4874660;29;1385;-69
2021/01/15 10:51:40;;;;;;;;;;;;;;;15.46;53.82;101451.81;4874740;29;1079;-69
2021/01/15 10:54:26;;;;;;;;;;;;;;;15.47;53.99;101443.03;4901944;29;1270;-69
2021/01/15 10:56:53;;;;;;;;;;;;;;;15.48;54.04;101436.88;4917065;29;1632;-70
2021/01/15 10:59:21;;;;;;;;;;;;;;;15.47;53.52;101421.16;4911051;29;1371;-70
2021/01/15 11:01:51;;;;;;;;;;;;;;;15.47;53.42;101416.78;4918587;29;1540;-70
2021/01/15 11:04:19;;;;;;;;;;;;;;;15.49;53.18;101433.34;4901104;29;1318;-70
2021/01/15 11:06:54;;;;;;;;;;;;;;;15.48;53.45;101417.63;4900400;29;1561;-70
2021/01/15 11:09:21;;;;;;;;;;;;;;;15.48;53.16;101413.25;4893933;29;1294;-68
2021/01/15 11:12:06;;;;;;;;;;;;;;;15.47;53.29;101411.53;4910322;29;1970;-69
2021/01/15 11:14:32;;;;;;;;;;;;;;;15.48;53.23;101410.63;4916046;29;1314;-68
2021/01/15 11:16:59;;;;;;;;;;;;;;;15.49;53.15;101401.84;4893654;29;1143;-69
2021/01/15 11:19:25;;;;;;;;;;;;;;;15.48;52.99;101394.88;4910978;29;1265;-68
2021/01/15 11:21:51;;;;;;;;;;;;;;;15.48;52.83;101387.00;4911550;29;813;-69
2021/01/15 11:24:18;;;;;;;;;;;;;;;15.49;52.88;101379.97;4909528;29;1848;-68
2021/01/15 11:26:45;;;;;;;;;;;;;;;15.48;53.71;101381.75;4911587;29;772;-70
2021/01/15 11:29:12;;;;;;;;;;;;;;;15.48;53.21;101379.13;4913994;29;1417;-71
2021/01/15 11:31:41;;;;;;;;;;;;;;;15.49;53.00;101375.59;4919135;29;1311;-70
2021/01/15 11:34:09;;;;;;;;;;;;;;;15.48;52.99;101370.38;4898552;29;1910;-71
2021/01/15 11:36:35;;;;;;;;;;;;;;;15.47;52.91;101361.63;4912470;29;1042;-72
2021/01/15 11:39:05;;;;;;;;;;;;;;;15.49;52.72;101358.97;4916260;29;1301;-70
2021/01/15 11:41:31;;;;;;;;;;;;;;;15.49;52.55;101365.09;4910592;29;827;-70
2021/01/15 11:43:57;;;;;;;;;;;;;;;15.69;54.09;101361.78;4910097;29;1273;-69
2021/01/15 11:46:28;;;;;;;;;;;;;;;15.72;53.87;101369.53;4910661;29;1042;-74
2021/01/15 11:48:55;;;;;;;;;;;;;;;15.68;54.42;101363.56;4909225;29;1333;-72
2021/01/15 11:51:21;;;;;;;;;;;;;;;15.69;55.31;101367.88;4893213;29;1210;-74
2021/01/15 11:53:47;;;;;;;;;;;;;;;15.77;55.39;101367.63;4910325;29;1930;-81
2021/01/15 11:56:17;;;;;;;;;;;;;;;15.87;55.35;101365.56;4884480;29;1268;-76
2021/01/15 11:58:43;;;;;;;;;;;;;;;15.98;55.16;101358.13;4889281;29;1704;-74
2021/01/15 12:01:13;;;;;;;;;;;;;;;16.02;55.01;101357.94;4912688;29;1732;-77
2021/01/15 12:03:46;;;;;;;;;;;;;;;16.18;54.40;101331.97;4908521;29;1432;-75
2021/01/15 12:06:13;;;;;;;;;;;;;;;16.29;53.88;101330.66;4904905;29;1597;-72
2021/01/15 12:08:43;;;;;;;;;;;;;;;16.45;53.83;101336.19;4888540;29;1534;-72
2021/01/15 12:11:13;;;;;;;;;;;;;;;16.66;53.54;101329.28;4910232;29;1222;-73
2021/01/15 12:13:41;;;;;;;;;;;;;;;16.72;53.68;101334.31;4898698;29;1915;-69
2021/01/15 12:16:09;;;;;;;;;;;;;;;16.76;53.57;101336.75;4894542;29;1494;-72
2021/01/15 12:18:36;;;;;;;;;;;;;;;16.75;53.91;101327.16;4913847;29;1297;-73
2021/01/15 12:21:02;;;;;;;;;;;;;;;16.79;54.05;101320.84;4896265;29;1238;-72
2021/01/15 12:23:28;;;;;;;;;;;;;;;16.79;54.15;101334.00;4884420;29;1309;-72
2021/01/15 12:25:55;;;;;;;;;;;;;;;16.83;54.10;101321.59;4896669;29;1294;-72
2021/01/15 12:28:22;;;;;;;;;;;;;;;16.85;54.22;101325.00;4913127;29;1289;-70
2021/01/15 12:30:53;;;;;;;;;;;;;;;16.87;54.34;101317.94;4913642;29;1197;-71
2021/01/15 12:33:20;;;;;;;;;;;;;;;16.92;54.11;101315.97;4895291;29;1915;-72
2021/01/15 12:35:47;;;;;;;;;;;;;;;16.91;54.13;101309.84;4913478;29;1300;-75
2021/01/15 12:38:18;;;;;;;;;;;;;;;16.92;54.29;101301.03;4913391;29;1289;-73
2021/01/15 12:40:48;;;;;;;;;;;;;;;17.02;54.20;101303.28;4895495;29;1292;-74
2021/01/15 12:43:15;;;;;;;;;;;;;;;16.97;54.21;101306.09;4906011;29;1569;-72
2021/01/15 12:45:46;;;;;;;;;;;;;;;16.92;54.23;101298.41;4913343;29;1178;-74
2021/01/15 12:48:13;;;;;;;;;;;;;;;16.91;54.47;101295.81;4910472;29;1348;-74
2021/01/15 12:50:39;;;;;;;;;;;;;;;16.91;54.47;101294.06;4895626;29;1845;-74
2021/01/15 12:53:05;;;;;;;;;;;;;;;17.02;54.23;101284.88;4884139;29;2013;-76
2021/01/15 12:55:32;;;;;;;;;;;;;;;16.93;53.65;101272.94;4908494;29;1276;-77
2021/01/15 12:58:49;;;;;;;;;;;;;;;16.92;52.53;101263.34;4903970;29;1298;-79
2021/01/15 13:01:16;;;;;;;;;;;;;;;16.98;52.60;101262.22;4866786;29;1162;-72
2021/01/15 13:03:42;;;;;;;;;;;;;;;17.06;51.37;101270.63;4907414;29;1392;-72
2021/01/15 13:06:09;;;;;;;;;;;;;;;17.10;51.68;101293.28;4913519;29;1154;-70
2021/01/15 13:08:35;;;;;;;;;;;;;;;17.16;52.08;101295.66;4913435;29;1319;-73
2021/01/15 13:11:02;;;;;;;;;;;;;;;17.15;52.39;101296.59;4889332;29;1490;-77
2021/01/15 13:13:28;;;;;;;;;;;;;;;17.28;53.44;101295.16;4904976;29;1919;-75
2021/01/15 13:15:56;;;;;;;;;;;;;;;17.28;53.20;101279.38;4895057;29;1489;-70
2021/01/15 13:18:22;;;;;;;;;;;;;;;17.28;53.00;101280.22;4914644;29;1370;-75
2021/01/15 13:20:48;;;;;;;;;;;;;;;17.36;53.30;101267.56;4913967;29;1304;-72
2021/01/15 13:23:17;;;;;;;;;;;;;;;17.26;53.59;101262.78;4896435;29;1348;-70
2021/01/15 13:26:05;;;;;;;;;;;;;;;17.20;54.73;101260.41;4893387;29;1297;-71
2021/01/15 13:28:31;;;;;;;;;;;;;;;17.15;54.45;101265.84;4888374;29;1605;-72